»·PEaware :: N49872 KSEE-KONT

N49872 :: KSEE-KONT

FLIGHT INFORMATION

Flight Status: Arrived
Operator: Privately registered:
United States
More flights under this callsign
Pilot: Kyle Klawiter (13572)
Aircraft: BEECH AIRCRAFT BARON
(BE58)
More flights by this aircraft type
Origin: KSEE Gillespie
United States
Destination: KONT Ontario Intl
United States
More flights between these airports :: More routes between these airports
Route: +
File this flight plan on PilotEdge
Remarks:
Altitude:
(Current/Filed)
0ft
Speed:
(Current/Filed)
0kts
Departed: 07-Jan-17 03:36 PM
Arrived: 07-Jan-17 04:15 PM
Distance/Time
Traveled:
80nm/0:39
Distance/Time
To Go:
Arrived

Flight Plot

Page will automatically refresh every two minutes.

Flight plan parsing failed; only flown route is shown


Map Options




Map Legend


Flown Route
Filed Route
Departure Airport
Arrival Airport
Navaid (VOR, NDB)
Fix

Horizontal Profiles

Position Reports

Time Latitude Longitude Heading Altitude Ground
Speed
07-Jan-17 15:26 32.824800 -116.969711 14 389ft 0kts
07-Jan-17 15:27 32.824800 -116.969711 14 389ft 0kts
07-Jan-17 15:28 32.824800 -116.969711 14 389ft 0kts
07-Jan-17 15:29 32.824800 -116.969711 14 389ft 0kts
07-Jan-17 15:30 32.824646 -116.967048 87 389ft 21kts
07-Jan-17 15:31 32.825070 -116.964127 40 389ft 6kts
07-Jan-17 15:32 32.825155 -116.964141 305 389ft 0kts
07-Jan-17 15:33 32.825155 -116.964141 305 389ft 0kts
07-Jan-17 15:34 32.825570 -116.964282 348 389ft 0kts
07-Jan-17 15:35 32.826249 -116.964594 324 389ft 15kts
07-Jan-17 15:36 32.835719 -116.987531 344 1143ft 112kts
07-Jan-17 15:37 32.863426 -116.965396 59 2192ft 138kts
07-Jan-17 15:38 32.886882 -116.933174 21 3094ft 127kts
07-Jan-17 15:39 32.919935 -116.945213 332 3741ft 131kts
07-Jan-17 15:40 32.953314 -116.963990 345 4202ft 134kts
07-Jan-17 15:41 32.982124 -116.979680 322 3858ft 115kts
07-Jan-17 15:42 33.007895 -117.003067 324 4019ft 111kts
07-Jan-17 15:43 33.036409 -117.022368 336 4169ft 125kts
07-Jan-17 15:44 33.066752 -117.039462 331 4866ft 114kts
07-Jan-17 15:45 33.092912 -117.056371 335 5666ft 104kts
07-Jan-17 15:46 33.118507 -117.070314 333 6487ft 100kts
07-Jan-17 15:47 33.143695 -117.085554 330 7208ft 101kts
07-Jan-17 15:48 33.170522 -117.105902 333 7512ft 136kts
07-Jan-17 15:49 33.208677 -117.127543 334 7504ft 163kts
07-Jan-17 15:50 33.251077 -117.150599 335 7501ft 171kts
07-Jan-17 15:51 33.294318 -117.174043 335 7498ft 168kts
07-Jan-17 15:52 33.336230 -117.196764 335 7499ft 164kts
07-Jan-17 15:53 33.377684 -117.219231 335 7499ft 163kts
07-Jan-17 15:54 33.418740 -117.241472 335 7500ft 164kts
07-Jan-17 15:55 33.460645 -117.264171 335 7499ft 164kts
07-Jan-17 15:56 33.502059 -117.286599 335 7499ft 164kts
07-Jan-17 15:57 33.543710 -117.309160 335 7499ft 164kts
07-Jan-17 15:58 33.585023 -117.331528 335 7499ft 164kts
07-Jan-17 15:59 33.626492 -117.353980 335 7499ft 163kts
07-Jan-17 16:00 33.667950 -117.376426 335 7499ft 163kts
07-Jan-17 16:01 33.709488 -117.398914 335 7499ft 163kts
07-Jan-17 16:02 33.750767 -117.421651 334 7499ft 163kts
07-Jan-17 16:03 33.792308 -117.445188 334 7299ft 170kts
07-Jan-17 16:04 33.836055 -117.460200 347 6584ft 160kts
07-Jan-17 16:05 33.877950 -117.475074 341 5877ft 155kts
07-Jan-17 16:06 33.916984 -117.490562 341 5244ft 138kts
07-Jan-17 16:07 33.947899 -117.502811 340 4664ft 93kts
07-Jan-17 16:08 33.945160 -117.524508 186 3873ft 94kts
07-Jan-17 16:09 33.933061 -117.503616 47 3500ft 92kts
07-Jan-17 16:10 33.956307 -117.513875 345 3211ft 100kts
07-Jan-17 16:11 33.983860 -117.520570 347 2847ft 103kts
07-Jan-17 16:12 34.012474 -117.529251 342 2444ft 105kts
07-Jan-17 16:13 34.040457 -117.540165 338 2064ft 101kts
07-Jan-17 16:14 34.054211 -117.565695 283 1440ft 95kts
07-Jan-17 16:15 34.054926 -117.592427 263 944ft 34kts
07-Jan-17 16:16 34.054058 -117.594267 234 944ft 0kts
07-Jan-17 16:17 34.053843 -117.597572 270 944ft 32kts
07-Jan-17 16:18 34.053828 -117.609186 272 944ft 22kts
07-Jan-17 16:19 34.052505 -117.612869 339 944ft 0kts
07-Jan-17 16:20 34.052505 -117.612869 339 944ft 0kts
07-Jan-17 16:21 34.052505 -117.612869 339 944ft 0kts
07-Jan-17 16:22 34.052505 -117.612869 339 944ft 0kts
07-Jan-17 16:23 34.052505 -117.612869 339 944ft 0kts
07-Jan-17 16:24 34.052505 -117.612869 339 944ft 0kts
07-Jan-17 16:25 34.052505 -117.612869 339 944ft 0kts

Navigation Log

Ident Type
Flight plan parsing failed, navigation log unavailable